Weather at Mercy Hospital of Buffalo Helipad

Public forecast

Using degrees Fahrenheit for public forecast. Weather courtesy of forecast.io.

Closest aviation weather report (METAR) to Mercy Hospital of Buffalo Helipad

Closest report is Buffalo Niagara International Airport, 6.6 nm (12.2 km) NNE.

2024/05/26 09:22 (retrieved 33 minutes ago)

KBUF 260922Z 15004KT 1/8SM R23/1000V2200FT FG VV001 14/14 A2992 RMK AO2 T01440139

Closest aviation forecast (TAF) to Mercy Hospital of Buffalo Helipad

Closest forecast is Buffalo Niagara International Airport, 6.6 nm (12.2 km) NNE.

2024/05/26 07:03 Ammendment (retrieved 3 hours ago)

TAF AMD KBUF 260701Z 2607/2706 00000KT 1/4SM FG VV003 FM261000 00000KT 1SM BR OVC004 FM261400 00000KT P6SM BKN025 FM261500 VRB03KT P6SM SCT250 FM261800 07005KT P6SM SKC FM270300 10010KT P6SM BKN100